createdAt,value
2018-12-18T00:00:20.528Z,70.57
2018-12-18T00:02:51.484Z,75.43
2018-12-18T00:05:26.026Z,80.07
2018-12-18T00:07:54.718Z,81.03
2018-12-18T00:10:25.192Z,71.47
2018-12-18T00:12:55.117Z,74.90
2018-12-18T00:15:24.719Z,81.93
2018-12-18T00:17:55.127Z,95.23
2018-12-18T00:20:24.695Z,89.20
2018-12-18T00:22:56.093Z,93.13
2018-12-18T00:25:26.574Z,94.00
2018-12-18T00:27:56.291Z,108.63
2018-12-18T00:30:26.861Z,101.90
2018-12-18T00:32:58.858Z,112.27
2018-12-18T00:35:29.204Z,100.97
2018-12-18T00:37:58.692Z,122.53
2018-12-18T00:40:28.607Z,118.03
2018-12-18T00:42:58.249Z,109.83
2018-12-18T00:45:27.201Z,132.70
2018-12-18T00:47:57.005Z,118.87
2018-12-18T00:50:26.305Z,128.30
2018-12-18T00:52:56.125Z,124.03
2018-12-18T00:55:24.580Z,107.40
2018-12-18T00:57:53.025Z,111.40
2018-12-18T01:00:21.597Z,122.77
2018-12-18T01:02:50.006Z,131.93
2018-12-18T01:05:19.839Z,128.33
2018-12-18T01:07:53.261Z,129.00
2018-12-18T01:10:21.267Z,121.20
2018-12-18T01:12:51.568Z,129.23
2018-12-18T01:15:20.109Z,128.83
2018-12-18T01:17:48.601Z,113.70
2018-12-18T01:20:17.237Z,120.10
2018-12-18T01:22:46.352Z,116.70
2018-12-18T01:25:15.284Z,127.57
2018-12-18T01:27:43.737Z,112.17
2018-12-18T01:30:12.523Z,104.77
2018-12-18T01:32:41.347Z,97.93
2018-12-18T01:35:09.838Z,105.23
2018-12-18T01:37:38.247Z,121.80
2018-12-18T01:40:07.210Z,108.33
2018-12-18T01:42:35.781Z,111.43
2018-12-18T01:45:04.768Z,101.40
2018-12-18T01:47:33.223Z,98.13
2018-12-18T01:50:02.237Z,91.77
2018-12-18T01:52:31.675Z,103.37
2018-12-18T01:55:00.084Z,89.13
2018-12-18T01:57:28.562Z,93.23
2018-12-18T01:59:57.102Z,93.27
2018-12-18T02:02:25.634Z,101.07
2018-12-18T02:04:54.695Z,87.97
2018-12-18T02:07:23.556Z,87.17
2018-12-18T02:09:52.032Z,96.80
2018-12-18T02:12:20.472Z,84.00
2018-12-18T02:14:48.937Z,101.93
2018-12-18T02:17:17.373Z,96.47
2018-12-18T02:19:45.831Z,105.97
2018-12-18T02:22:15.193Z,96.37
2018-12-18T02:24:44.261Z,99.30
2018-12-18T02:27:13.715Z,111.90
2018-12-18T02:29:42.168Z,101.83
2018-12-18T02:32:10.644Z,109.27
2018-12-18T02:34:39.278Z,114.43
2018-12-18T02:37:07.842Z,130.43
2018-12-18T02:39:36.307Z,108.63
2018-12-18T02:42:04.735Z,117.27
2018-12-18T02:44:33.311Z,122.93
2018-12-18T02:47:01.798Z,120.03
2018-12-18T02:49:31.214Z,122.07
2018-12-18T02:51:59.694Z,139.70
2018-12-18T02:54:28.186Z,149.43
2018-12-18T02:56:56.723Z,137.77
2018-12-18T02:59:25.227Z,134.67
2018-12-18T03:01:54.373Z,138.93
2018-12-18T03:04:23.440Z,130.57
2018-12-18T03:06:51.880Z,131.20
2018-12-18T03:09:20.466Z,147.10
2018-12-18T03:11:48.902Z,136.13
2018-12-18T03:14:17.331Z,141.47
2018-12-18T03:16:45.754Z,119.77
2018-12-18T03:19:14.310Z,130.57
2018-12-18T03:21:42.756Z,147.77
2018-12-18T03:24:11.255Z,152.67
2018-12-18T03:26:39.716Z,139.37
2018-12-18T03:29:08.648Z,134.63
2018-12-18T03:31:39.005Z,139.53
2018-12-18T03:34:07.462Z,152.67
2018-12-18T03:36:35.938Z,148.47
2018-12-18T03:39:06.549Z,164.83
2018-12-18T03:41:35.028Z,159.30
2018-12-18T03:44:03.565Z,138.13
2018-12-18T03:46:32.142Z,137.37
2018-12-18T03:49:01.510Z,145.40
2018-12-18T03:51:30.691Z,176.93
2018-12-18T03:53:59.264Z,151.30
2018-12-18T03:56:27.875Z,157.47
2018-12-18T03:58:56.329Z,136.07
2018-12-18T04:01:24.811Z,132.50
2018-12-18T04:03:53.245Z,130.57
2018-12-18T04:06:21.822Z,138.00
2018-12-18T04:08:50.540Z,128.13
2018-12-18T04:11:18.970Z,134.77
2018-12-18T04:13:47.428Z,129.20
2018-12-18T04:16:15.837Z,166.67
2018-12-18T04:18:44.291Z,135.53
2018-12-18T04:21:12.701Z,157.30
2018-12-18T04:23:41.112Z,128.37
2018-12-18T04:26:09.545Z,137.63
2018-12-18T04:28:38.000Z,144.10
2018-12-18T04:31:06.456Z,155.33
2018-12-18T04:33:35.030Z,138.30
2018-12-18T04:36:03.551Z,143.30
2018-12-18T04:38:31.993Z,126.47
2018-12-18T04:41:00.481Z,137.53
2018-12-18T04:43:28.971Z,140.77
2018-12-18T04:45:57.489Z,146.53
2018-12-18T04:48:25.973Z,133.83
2018-12-18T04:50:54.397Z,141.33
2018-12-18T04:53:22.877Z,166.27
2018-12-18T04:55:51.390Z,156.57
2018-12-18T04:58:19.826Z,167.07
2018-12-18T05:00:48.358Z,158.07
2018-12-18T05:03:16.910Z,167.73
2018-12-18T05:05:45.372Z,162.47
2018-12-18T05:08:13.809Z,170.07
2018-12-18T05:10:43.147Z,190.20
2018-12-18T05:13:11.613Z,171.43
2018-12-18T05:15:40.128Z,170.33
2018-12-18T05:18:08.608Z,171.23
2018-12-18T05:20:38.123Z,186.57
2018-12-18T05:23:06.641Z,215.20
2018-12-18T05:25:35.143Z,215.07
2018-12-18T05:28:03.681Z,224.57
2018-12-18T05:30:32.277Z,207.97
2018-12-18T05:33:00.794Z,239.07
2018-12-18T05:35:29.467Z,220.13
2018-12-18T05:37:58.266Z,215.50
2018-12-18T05:40:27.495Z,204.60
2018-12-18T05:42:56.707Z,202.27
2018-12-18T05:45:25.198Z,256.30
2018-12-18T05:47:53.676Z,207.43
2018-12-18T05:50:22.170Z,240.00
2018-12-18T05:52:50.644Z,191.17
2018-12-18T05:55:19.264Z,213.90
2018-12-18T05:57:47.753Z,242.57
2018-12-18T06:00:16.420Z,202.13
2018-12-18T06:02:45.447Z,204.07
2018-12-18T06:05:13.954Z,210.87
2018-12-18T06:07:42.510Z,251.40
2018-12-18T06:10:10.942Z,237.63
2018-12-18T06:12:39.387Z,201.37
2018-12-18T06:15:08.466Z,232.77
2018-12-18T06:17:36.894Z,218.87
2018-12-18T06:20:05.496Z,186.13
2018-12-18T06:22:33.916Z,219.50
2018-12-18T06:25:02.566Z,195.27
2018-12-18T06:27:31.157Z,197.93
2018-12-18T06:29:59.624Z,209.97
2018-12-18T06:32:28.176Z,165.63
2018-12-18T06:34:56.771Z,173.83
2018-12-18T06:37:25.360Z,181.40
2018-12-18T06:39:53.808Z,180.30
2018-12-18T06:42:22.259Z,190.87
2018-12-18T06:44:50.820Z,200.87
2018-12-18T06:47:19.293Z,223.13
2018-12-18T06:49:48.358Z,160.33
2018-12-18T06:52:16.842Z,206.47
2018-12-18T06:54:45.303Z,225.33
2018-12-18T06:57:13.958Z,183.97
2018-12-18T06:59:43.021Z,191.27
2018-12-18T07:02:11.518Z,205.07
2018-12-18T07:04:39.987Z,186.30
2018-12-18T07:07:08.466Z,184.43
2018-12-18T07:09:36.967Z,229.33
2018-12-18T07:12:05.474Z,249.87
2018-12-18T07:14:33.906Z,203.17
2018-12-18T07:17:02.366Z,216.60
2018-12-18T07:19:30.922Z,228.20
2018-12-18T07:21:59.367Z,193.43
2018-12-18T07:24:28.514Z,208.47
2018-12-18T07:26:57.577Z,151.13
2018-12-18T07:29:26.152Z,176.27
2018-12-18T07:31:54.848Z,202.47
2018-12-18T07:34:23.459Z,181.13
2018-12-18T07:36:52.483Z,196.67
2018-12-18T07:39:21.056Z,260.27
2018-12-18T07:41:49.622Z,212.23
2018-12-18T07:44:18.131Z,180.57
2018-12-18T07:46:46.694Z,184.60
2018-12-18T07:49:15.353Z,168.63
2018-12-18T07:51:43.911Z,170.63
2018-12-18T07:54:13.092Z,144.30
2018-12-18T07:56:41.851Z,185.17
2018-12-18T07:59:10.561Z,220.53
2018-12-18T08:01:39.041Z,170.47
2018-12-18T08:04:08.106Z,150.70
2018-12-18T08:06:36.814Z,185.40
2018-12-18T08:09:07.623Z,168.93
2018-12-18T08:11:42.657Z,212.77
2018-12-18T08:14:11.188Z,206.67
2018-12-18T08:16:39.724Z,198.30
2018-12-18T08:19:08.335Z,176.70
2018-12-18T08:21:36.865Z,173.17
2018-12-18T08:24:07.008Z,162.37
2018-12-18T08:26:35.454Z,184.13
2018-12-18T08:29:04.063Z,155.50
2018-12-18T08:31:32.593Z,161.40
2018-12-18T08:34:01.096Z,131.80
2018-12-18T08:36:29.680Z,150.13
2018-12-18T08:38:58.155Z,138.97
2018-12-18T08:41:26.740Z,130.73
2018-12-18T08:43:55.162Z,123.20
2018-12-18T08:46:23.670Z,124.03
2018-12-18T08:48:52.108Z,96.57
2018-12-18T08:51:21.132Z,90.97
2018-12-18T08:53:49.606Z,86.00
2018-12-18T08:56:18.057Z,89.60
2018-12-18T08:58:46.959Z,86.07
2018-12-18T09:01:15.478Z,104.10
2018-12-18T09:03:43.980Z,83.03
2018-12-18T09:06:12.845Z,76.77
2018-12-18T09:08:41.320Z,84.47
2018-12-18T09:11:09.781Z,82.43
2018-12-18T09:13:38.701Z,92.63
2018-12-18T09:16:11.405Z,111.63
2018-12-18T09:18:39.986Z,134.77
2018-12-18T09:21:08.554Z,97.47
2018-12-18T09:23:37.044Z,103.43
2018-12-18T09:26:05.534Z,84.07
2018-12-18T09:28:34.227Z,76.80
2018-12-18T09:31:02.823Z,79.80
2018-12-18T09:33:32.284Z,78.93
2018-12-18T09:36:00.768Z,86.30
2018-12-18T09:38:34.645Z,70.43
2018-12-18T09:41:09.788Z,80.73
2018-12-18T09:43:43.654Z,77.03
2018-12-18T09:46:12.118Z,63.07
2018-12-18T09:48:40.612Z,65.57
2018-12-18T09:51:09.251Z,61.30
2018-12-18T09:53:37.789Z,57.77
2018-12-18T09:56:08.859Z,56.43
2018-12-18T09:58:37.314Z,47.67
2018-12-18T10:01:05.811Z,47.70
2018-12-18T10:03:34.303Z,47.50
2018-12-18T10:06:02.811Z,44.73
2018-12-18T10:08:31.331Z,46.03
2018-12-18T10:11:00.005Z,41.83
2018-12-18T10:13:28.868Z,42.83
2018-12-18T10:15:57.303Z,40.03
2018-12-18T10:18:25.728Z,44.30
2018-12-18T10:20:54.871Z,43.73
2018-12-18T10:23:23.584Z,46.20
2018-12-18T10:25:52.082Z,44.50
2018-12-18T10:28:20.543Z,40.77
2018-12-18T10:30:49.040Z,37.47
2018-12-18T10:33:18.194Z,31.40
2018-12-18T10:35:46.614Z,30.47
2018-12-18T10:38:15.038Z,26.57
2018-12-18T10:40:43.970Z,29.80
2018-12-18T10:43:12.582Z,30.03
2018-12-18T10:45:41.258Z,23.80
2018-12-18T10:48:09.824Z,25.80
2018-12-18T10:50:38.235Z,25.27
2018-12-18T10:53:06.683Z,23.33
2018-12-18T10:55:35.233Z,22.50
2018-12-18T10:58:03.819Z,21.50
2018-12-18T11:00:38.318Z,20.33
2018-12-18T11:03:06.779Z,15.43
2018-12-18T11:05:35.463Z,17.40
2018-12-18T11:08:04.020Z,18.53
2018-12-18T11:10:32.544Z,15.67
2018-12-18T11:13:06.321Z,18.77
2018-12-18T11:15:34.803Z,19.20
2018-12-18T11:18:03.256Z,19.27
2018-12-18T11:20:31.827Z,17.97
2018-12-18T11:23:00.275Z,19.30
2018-12-18T11:25:28.922Z,19.50
2018-12-18T11:27:57.638Z,19.10
2018-12-18T11:30:26.143Z,18.20
2018-12-18T11:32:54.695Z,18.40
2018-12-18T11:35:23.981Z,13.37
2018-12-18T11:37:52.406Z,18.47
2018-12-18T11:40:20.910Z,15.33
2018-12-18T11:42:49.408Z,14.33
2018-12-18T11:45:17.973Z,14.17
2018-12-18T11:47:46.473Z,18.07
2018-12-18T11:50:15.301Z,17.37
2018-12-18T11:52:43.780Z,17.77
2018-12-18T11:55:12.992Z,18.10
2018-12-18T11:57:41.597Z,20.37
2018-12-18T12:00:12.879Z,16.13
2018-12-18T12:02:42.919Z,16.43
2018-12-18T12:05:11.730Z,16.67
2018-12-18T12:07:40.314Z,16.37
2018-12-18T12:10:08.984Z,17.47
2018-12-18T12:12:37.516Z,19.23
2018-12-18T12:15:06.644Z,24.07
2018-12-18T12:17:35.960Z,19.77
2018-12-18T12:20:04.742Z,20.30
2018-12-18T12:22:33.357Z,19.43
2018-12-18T12:25:02.207Z,19.93
2018-12-18T12:27:36.283Z,18.70
2018-12-18T12:30:05.553Z,24.60
2018-12-18T12:32:34.062Z,16.43
2018-12-18T12:35:02.546Z,18.27
2018-12-18T12:37:31.088Z,15.07
2018-12-18T12:39:59.655Z,15.17
2018-12-18T12:42:28.112Z,15.53
2018-12-18T12:44:56.735Z,15.10
2018-12-18T12:47:25.242Z,15.50
2018-12-18T12:49:53.765Z,16.97
2018-12-18T12:52:22.185Z,14.97
2018-12-18T12:54:50.709Z,18.87
2018-12-18T12:57:19.130Z,17.53
2018-12-18T12:59:47.583Z,18.10
2018-12-18T13:02:16.010Z,16.67
2018-12-18T13:04:45.366Z,19.80
2018-12-18T13:07:13.805Z,19.57
2018-12-18T13:09:42.392Z,19.07
2018-12-18T13:12:10.858Z,19.20
2018-12-18T13:14:39.309Z,15.33
2018-12-18T13:17:07.971Z,15.07
2018-12-18T13:19:36.413Z,18.70
2018-12-18T13:22:05.470Z,18.43
2018-12-18T13:24:34.010Z,14.53
2018-12-18T13:27:02.619Z,20.60
2018-12-18T13:29:31.408Z,17.80
2018-12-18T13:32:00.073Z,17.47
2018-12-18T13:34:28.764Z,19.10
2018-12-18T13:36:57.225Z,16.37
2018-12-18T13:39:25.759Z,20.20
2018-12-18T13:41:54.208Z,20.60
2018-12-18T13:44:22.651Z,19.30
2018-12-18T13:46:51.109Z,21.07
2018-12-18T13:49:19.695Z,22.90
2018-12-18T13:51:48.144Z,18.97
2018-12-18T13:54:16.797Z,26.60
2018-12-18T13:56:45.249Z,20.47
2018-12-18T13:59:13.826Z,19.77
2018-12-18T14:01:42.285Z,34.07
2018-12-18T14:04:12.674Z,28.70
2018-12-18T14:06:41.134Z,30.77
2018-12-18T14:09:10.095Z,24.67
2018-12-18T14:11:38.534Z,23.00
2018-12-18T14:14:07.333Z,23.80
2018-12-18T14:16:35.840Z,20.23
2018-12-18T14:19:04.444Z,25.33
2018-12-18T14:21:32.920Z,33.10
2018-12-18T14:24:01.356Z,25.03
2018-12-18T14:26:29.834Z,29.97
2018-12-18T14:28:58.527Z,28.27
2018-12-18T14:31:26.991Z,24.30
2018-12-18T14:33:55.470Z,27.97
2018-12-18T14:36:23.947Z,25.07
2018-12-18T14:38:52.394Z,24.20
2018-12-18T14:41:20.902Z,38.83
2018-12-18T14:43:49.422Z,30.67
2018-12-18T14:46:17.883Z,25.30
2018-12-18T14:48:46.404Z,26.17
2018-12-18T14:51:14.978Z,35.33
2018-12-18T14:53:43.433Z,34.50
2018-12-18T14:56:11.961Z,30.53
2018-12-18T14:58:40.412Z,25.77
2018-12-18T15:01:09.084Z,33.87
2018-12-18T15:03:37.540Z,39.97
2018-12-18T15:06:06.003Z,28.77
2018-12-18T15:08:34.451Z,28.07
2018-12-18T15:11:03.224Z,33.23
2018-12-18T15:13:31.689Z,35.27
2018-12-18T15:16:00.331Z,29.90
2018-12-18T15:18:28.917Z,35.20
2018-12-18T15:20:57.901Z,30.53
2018-12-18T15:23:26.358Z,36.57
2018-12-18T15:25:54.881Z,33.57
2018-12-18T15:28:23.398Z,32.67
2018-12-18T15:30:51.905Z,52.03
2018-12-18T15:33:20.422Z,66.10
2018-12-18T15:35:49.217Z,49.77
2018-12-18T15:38:17.738Z,42.37
2018-12-18T15:40:46.373Z,38.47
2018-12-18T15:43:14.826Z,37.20
2018-12-18T15:45:43.372Z,33.57
2018-12-18T15:48:11.825Z,45.60
2018-12-18T15:50:40.277Z,36.70
2018-12-18T15:53:08.710Z,39.33
2018-12-18T15:55:37.146Z,33.73
2018-12-18T15:58:05.588Z,32.10
2018-12-18T16:00:34.203Z,31.83
2018-12-18T16:03:02.775Z,39.07
2018-12-18T16:05:31.352Z,37.67
2018-12-18T16:07:59.833Z,40.13
2018-12-18T16:10:28.272Z,35.30
2018-12-18T16:12:56.742Z,33.50
2018-12-18T16:15:25.321Z,32.60
2018-12-18T16:17:53.898Z,37.37
2018-12-18T16:20:22.522Z,40.47
2018-12-18T16:22:50.955Z,34.87
2018-12-18T16:25:20.048Z,38.50
2018-12-18T16:27:48.471Z,39.03
2018-12-18T16:30:16.982Z,36.87
2018-12-18T16:32:45.448Z,40.43
2018-12-18T16:35:14.002Z,41.47
2018-12-18T16:37:42.489Z,48.10
2018-12-18T16:40:10.989Z,54.77
2018-12-18T16:42:39.419Z,51.23
2018-12-18T16:45:08.511Z,57.90
2018-12-18T16:47:37.591Z,42.57
2018-12-18T16:50:07.081Z,49.77
2018-12-18T16:52:35.502Z,41.37
2018-12-18T16:55:04.136Z,47.60
2018-12-18T16:57:32.553Z,40.77
2018-12-18T17:00:01.085Z,38.70
2018-12-18T17:02:29.829Z,40.30
2018-12-18T17:04:58.308Z,32.90
2018-12-18T17:07:29.727Z,35.47
2018-12-18T17:09:57.274Z,30.77
2018-12-18T17:12:25.771Z,32.93
2018-12-18T17:14:54.326Z,29.63
2018-12-18T17:17:22.759Z,31.07
2018-12-18T17:19:51.208Z,29.47
2018-12-18T17:22:19.789Z,28.63
2018-12-18T17:24:48.252Z,29.03
2018-12-18T17:27:16.671Z,26.70
2018-12-18T17:29:45.272Z,34.73
2018-12-18T17:32:13.700Z,34.47
2018-12-18T17:34:42.281Z,31.83
2018-12-18T17:37:10.794Z,26.20
2018-12-18T17:39:39.355Z,26.73
2018-12-18T17:42:08.274Z,33.83
2018-12-18T17:44:36.813Z,35.73
2018-12-18T17:47:05.392Z,31.23
2018-12-18T17:49:33.886Z,29.70
2018-12-18T17:52:03.101Z,32.07
2018-12-18T17:54:31.550Z,29.97
2018-12-18T17:57:00.221Z,29.40
2018-12-18T17:59:28.647Z,30.83
2018-12-18T18:01:57.232Z,28.43
2018-12-18T18:04:25.978Z,31.37
2018-12-18T18:06:54.515Z,34.20
2018-12-18T18:09:23.301Z,35.23
2018-12-18T18:11:51.996Z,28.63
2018-12-18T18:14:20.475Z,30.53
2018-12-18T18:16:49.125Z,31.03
2018-12-18T18:19:17.607Z,27.87
2018-12-18T18:21:46.039Z,29.43
2018-12-18T18:24:14.795Z,28.93
2018-12-18T18:26:43.273Z,33.33
2018-12-18T18:29:11.795Z,29.27
2018-12-18T18:31:40.359Z,34.77
2018-12-18T18:34:08.965Z,35.27
2018-12-18T18:36:37.448Z,34.53
2018-12-18T18:39:08.126Z,31.20
2018-12-18T18:41:36.797Z,39.73
2018-12-18T18:44:05.265Z,35.67
2018-12-18T18:46:33.811Z,37.13
2018-12-18T18:49:02.435Z,32.73
2018-12-18T18:51:30.863Z,33.57
2018-12-18T18:53:59.894Z,36.33
2018-12-18T18:56:29.572Z,35.57
2018-12-18T18:58:58.073Z,33.70
2018-12-18T19:01:26.570Z,38.83
2018-12-18T19:03:55.341Z,31.40
2018-12-18T19:06:26.004Z,26.57
2018-12-18T19:08:55.516Z,29.00
2018-12-18T19:11:24.000Z,33.10
2018-12-18T19:13:52.461Z,31.17
2018-12-18T19:16:20.937Z,30.03
2018-12-18T19:18:49.367Z,31.13
2018-12-18T19:21:17.933Z,34.40
2018-12-18T19:23:46.549Z,35.33
2018-12-18T19:26:15.103Z,36.80
2018-12-18T19:28:50.081Z,39.87
2018-12-18T19:31:15.006Z,33.67
2018-12-18T19:33:43.566Z,32.77
2018-12-18T19:36:12.598Z,30.07
2018-12-18T19:38:41.162Z,31.20
2018-12-18T19:41:09.751Z,28.27
2018-12-18T19:43:39.424Z,28.97
2018-12-18T19:46:07.977Z,30.90
2018-12-18T19:48:36.743Z,30.93
2018-12-18T19:51:05.213Z,28.47
2018-12-18T19:53:33.695Z,30.17
2018-12-18T19:56:04.959Z,33.87
2018-12-18T19:58:33.546Z,31.07
2018-12-18T20:01:03.016Z,28.20
2018-12-18T20:03:31.622Z,37.33
2018-12-18T20:06:00.303Z,38.47
2018-12-18T20:08:30.190Z,36.33
2018-12-18T20:10:59.077Z,37.57
2018-12-18T20:13:27.578Z,35.67
2018-12-18T20:15:56.213Z,32.37
2018-12-18T20:18:24.705Z,34.53
2018-12-18T20:20:53.264Z,36.27
2018-12-18T20:23:21.703Z,38.83
2018-12-18T20:25:50.478Z,29.80
2018-12-18T20:28:19.135Z,32.57
2018-12-18T20:33:22.405Z,34.90
2018-12-18T20:35:50.894Z,36.33
2018-12-18T20:38:19.498Z,36.33
2018-12-18T20:40:47.988Z,36.40
2018-12-18T20:43:16.856Z,38.50
2018-12-18T20:45:45.538Z,37.67
2018-12-18T20:48:13.994Z,37.00
2018-12-18T20:50:42.497Z,42.87
2018-12-18T20:53:10.983Z,42.80
2018-12-18T20:55:39.516Z,34.93
2018-12-18T20:58:14.755Z,38.97
2018-12-18T21:00:43.976Z,34.70
2018-12-18T21:03:12.739Z,37.70
2018-12-18T21:05:41.199Z,36.73
2018-12-18T21:08:09.904Z,41.60
2018-12-18T21:10:38.345Z,37.53
2018-12-18T21:13:12.302Z,37.33
2018-12-18T21:15:40.912Z,44.13
2018-12-18T21:18:09.436Z,46.07
2018-12-18T21:20:38.128Z,34.13
2018-12-18T21:23:06.689Z,32.37
2018-12-18T21:25:35.350Z,33.03
2018-12-18T21:28:03.945Z,35.37
2018-12-18T21:30:33.378Z,34.73
2018-12-18T21:33:03.165Z,31.40
2018-12-18T21:35:31.762Z,31.87
2018-12-18T21:38:00.446Z,38.23
2018-12-18T21:40:28.961Z,33.07
2018-12-18T21:42:57.563Z,29.50
2018-12-18T21:45:26.254Z,28.10
2018-12-18T21:47:54.927Z,28.67
2018-12-18T21:50:23.570Z,27.80
2018-12-18T21:52:52.383Z,30.63
2018-12-18T21:55:21.055Z,27.17
2018-12-18T21:57:50.126Z,24.17
2018-12-18T22:00:19.170Z,24.33
2018-12-18T22:02:47.960Z,31.27
2018-12-18T22:05:16.557Z,29.47
2018-12-18T22:07:45.461Z,25.23
2018-12-18T22:10:14.149Z,27.83
2018-12-18T22:12:42.735Z,25.27
2018-12-18T22:15:11.285Z,27.33
2018-12-18T22:17:40.480Z,28.70
2018-12-18T22:20:09.237Z,25.97
2018-12-18T22:22:37.994Z,23.20
2018-12-18T22:25:06.684Z,27.17
2018-12-18T22:27:35.456Z,23.47
2018-12-18T22:30:04.980Z,24.37
2018-12-18T22:32:33.567Z,26.97
2018-12-18T22:35:02.501Z,24.30
2018-12-18T22:37:30.936Z,28.20
2018-12-18T22:39:59.404Z,26.70
2018-12-18T22:42:27.970Z,32.83
2018-12-18T22:44:56.433Z,25.97
2018-12-18T22:47:25.017Z,35.37
2018-12-18T22:49:53.517Z,25.90
2018-12-18T22:52:22.640Z,25.87
2018-12-18T22:54:51.923Z,29.53
2018-12-18T22:57:20.488Z,30.03
2018-12-18T22:59:48.983Z,28.70
2018-12-18T23:02:18.092Z,28.20
2018-12-18T23:04:47.086Z,24.77
2018-12-18T23:07:15.570Z,22.93
2018-12-18T23:09:44.023Z,25.63
2018-12-18T23:12:12.515Z,21.93
2018-12-18T23:14:40.948Z,24.13
2018-12-18T23:17:09.566Z,32.43
2018-12-18T23:19:38.034Z,25.70
2018-12-18T23:22:06.592Z,29.63
2018-12-18T23:24:35.038Z,25.73
2018-12-18T23:27:03.602Z,19.37
2018-12-18T23:29:33.132Z,24.23
2018-12-18T23:32:01.679Z,26.93
2018-12-18T23:34:33.119Z,23.87
2018-12-18T23:37:01.110Z,22.20
2018-12-18T23:39:29.571Z,26.87
2018-12-18T23:41:58.430Z,30.10
2018-12-18T23:44:26.961Z,30.07
2018-12-18T23:46:55.434Z,28.23
2018-12-18T23:49:23.882Z,21.37
2018-12-18T23:51:52.410Z,24.23
2018-12-18T23:54:20.996Z,24.47
2018-12-18T23:56:49.441Z,26.57
2018-12-18T23:59:17.889Z,24.50
